Time;durP1;ratioP1;P1;durP2;ratioP2;P2;SDS_P1;SDS_P2;PMS_P1;PMS_P2;Temp;Humidity;BMP_temperature;BMP_pressure;BME280_temperature;BME280_humidity;BME280_pressure;Samples;Min_cycle;Max_cycle;Signal;HPM_P1;HPM_P2
2020/12/21 00:01:25;;;;;;;5.27;4.77;;;9.30;99.90;;;;;;10158499;29;20265;-80
2020/12/21 00:06:27;;;;;;;4.50;4.07;;;9.30;99.90;;;;;;10155580;29;20202;-81
2020/12/21 00:11:33;;;;;;;3.63;3.43;;;9.40;99.90;;;;;;10155214;29;20218;-80
2020/12/21 00:16:37;;;;;;;4.87;4.47;;;9.40;99.90;;;;;;10162053;29;20194;-81
2020/12/21 00:21:42;;;;;;;5.33;4.20;;;9.40;99.90;;;;;;10163567;29;20218;-80
2020/12/21 00:26:46;;;;;;;3.20;2.90;;;9.50;99.90;;;;;;10162248;29;20225;-80
2020/12/21 00:31:49;;;;;;;3.30;3.10;;;9.60;99.90;;;;;;10179099;29;20292;-81
2020/12/21 00:36:52;;;;;;;3.57;3.37;;;9.60;99.90;;;;;;10163981;29;20202;-80
2020/12/21 00:41:54;;;;;;;3.77;3.47;;;9.60;99.90;;;;;;10165488;29;20226;-80
2020/12/21 00:46:56;;;;;;;2.93;2.73;;;9.50;99.90;;;;;;10159655;29;20293;-80
2020/12/21 00:51:58;;;;;;;2.97;2.77;;;9.50;99.90;;;;;;10144466;29;20218;-81
2020/12/21 00:57:00;;;;;;;2.90;2.70;;;9.40;99.90;;;;;;10160066;29;20717;-80
2020/12/21 01:02:05;;;;;;;2.67;2.50;;;9.40;99.90;;;;;;10160621;29;20370;-81
2020/12/21 01:07:08;;;;;;;2.90;2.70;;;9.30;99.90;;;;;;10145690;29;20237;-81
2020/12/21 01:12:10;;;;;;;2.90;2.70;;;9.40;99.90;;;;;;10166335;29;20798;-80
2020/12/21 01:17:12;;;;;;;2.47;2.27;;;9.50;99.90;;;;;;10156622;29;20647;-80
2020/12/21 01:22:13;;;;;;;3.53;2.80;;;9.50;99.90;;;;;;10153680;29;20237;-80
2020/12/21 01:27:16;;;;;;;3.03;2.73;;;9.50;99.90;;;;;;10171547;29;20674;-80
2020/12/21 01:32:17;;;;;;;2.83;2.63;;;9.50;99.90;;;;;;10139895;29;20226;-80
2020/12/21 01:37:19;;;;;;;2.73;2.47;;;9.50;99.90;;;;;;10163482;29;20221;-80
2020/12/21 01:42:22;;;;;;;3.00;2.80;;;9.40;99.90;;;;;;10189212;29;20228;-80
2020/12/21 01:47:24;;;;;;;2.13;1.97;;;9.30;99.90;;;;;;10171962;29;20197;-80
2020/12/21 01:52:25;;;;;;;2.83;2.63;;;9.20;99.90;;;;;;10193091;29;20217;-80
2020/12/21 01:57:28;;;;;;;2.60;2.47;;;9.20;99.90;;;;;;10173859;29;20667;-79
2020/12/21 02:02:29;;;;;;;2.83;2.63;;;9.10;99.90;;;;;;10162877;29;20217;-79
2020/12/21 02:07:32;;;;;;;2.40;2.30;;;9.00;99.90;;;;;;10189988;29;20607;-79
2020/12/21 02:12:35;;;;;;;2.67;2.47;;;9.00;99.90;;;;;;10167132;29;20233;-80
2020/12/21 02:17:37;;;;;;;2.70;2.50;;;8.90;99.90;;;;;;10175495;29;20190;-79
2020/12/21 02:22:39;;;;;;;2.77;2.57;;;8.80;99.90;;;;;;10162342;29;20744;-80
2020/12/21 02:27:41;;;;;;;2.83;2.70;;;8.70;99.90;;;;;;10221874;29;20198;-80
2020/12/21 02:32:43;;;;;;;3.80;2.80;;;8.60;99.90;;;;;;10164400;29;20214;-79
2020/12/21 02:37:45;;;;;;;4.33;3.00;;;8.60;99.90;;;;;;10130418;29;20579;-80
2020/12/21 02:42:47;;;;;;;2.87;2.67;;;8.50;99.90;;;;;;10160891;29;20231;-79
2020/12/21 02:47:48;;;;;;;2.83;2.63;;;8.40;99.90;;;;;;10146868;29;20199;-80
2020/12/21 02:52:51;;;;;;;3.40;3.20;;;8.30;99.90;;;;;;10160282;29;20294;-79
2020/12/21 02:57:52;;;;;;;3.00;2.80;;;8.20;99.90;;;;;;10132075;29;20253;-79
2020/12/21 03:02:54;;;;;;;2.93;2.77;;;8.20;99.90;;;;;;10164313;29;20304;-80
2020/12/21 03:07:56;;;;;;;3.17;2.97;;;8.10;99.90;;;;;;10146821;29;20236;-80
2020/12/21 03:12:59;;;;;;;3.00;2.80;;;8.10;99.90;;;;;;10140159;29;20245;-79
2020/12/21 03:18:00;;;;;;;3.30;3.10;;;8.10;99.90;;;;;;10146359;29;20277;-79
2020/12/21 03:23:03;;;;;;;3.30;3.10;;;8.10;99.90;;;;;;10161464;29;20245;-80
2020/12/21 03:28:04;;;;;;;3.27;3.07;;;8.20;99.90;;;;;;10201656;29;20241;-80
2020/12/21 03:33:06;;;;;;;3.63;3.40;;;8.10;99.90;;;;;;10188753;29;20226;-79
2020/12/21 03:38:09;;;;;;;3.10;2.90;;;8.00;99.90;;;;;;10174792;29;20487;-79
2020/12/21 03:43:10;;;;;;;3.10;2.90;;;7.90;99.90;;;;;;10179435;29;20675;-79
2020/12/21 03:48:12;;;;;;;3.47;3.27;;;7.90;99.90;;;;;;10197819;29;20709;-79
2020/12/21 03:53:15;;;;;;;3.97;3.67;;;7.80;99.90;;;;;;10164969;29;20217;-79
2020/12/21 03:58:16;;;;;;;3.57;3.37;;;7.80;99.90;;;;;;10198053;29;20236;-79
2020/12/21 04:03:18;;;;;;;5.00;4.63;;;7.70;99.90;;;;;;10217506;29;20308;-79
2020/12/21 04:08:21;;;;;;;4.47;4.17;;;7.60;99.90;;;;;;10170235;29;20206;-80
2020/12/21 04:13:23;;;;;;;4.77;4.37;;;7.50;99.90;;;;;;10195133;29;20241;-79
2020/12/21 04:18:24;;;;;;;4.57;4.17;;;7.50;99.90;;;;;;10193835;29;20194;-80
2020/12/21 04:23:27;;;;;;;5.13;4.73;;;7.40;99.90;;;;;;10220975;23;20370;-77
2020/12/21 04:28:28;;;;;;;5.00;4.60;;;7.40;99.90;;;;;;10256230;28;20239;-81
2020/12/21 04:33:34;;;;;;;4.50;4.10;;;7.30;99.90;;;;;;10251111;28;20767;-82
2020/12/21 04:38:40;;;;;;;5.40;5.00;;;7.30;99.90;;;;;;10273496;28;20672;-79
2020/12/21 04:43:42;;;;;;;4.70;4.30;;;7.30;99.90;;;;;;10245308;28;20225;-79
2020/12/21 04:48:44;;;;;;;4.10;3.80;;;7.40;99.90;;;;;;10275386;28;20674;-79
2020/12/21 04:53:47;;;;;;;4.60;4.20;;;7.40;99.90;;;;;;10253623;28;20275;-79
2020/12/21 04:58:48;;;;;;;4.50;4.10;;;7.50;99.90;;;;;;10237399;28;20197;-80
2020/12/21 05:03:53;;;;;;;5.60;5.10;;;7.50;99.90;;;;;;10270683;28;20224;-79
2020/12/21 05:09:07;;;;;;;4.37;3.97;;;7.60;99.90;;;;;;10269460;28;20205;-78
2020/12/21 05:14:12;;;;;;;4.43;4.03;;;7.60;99.90;;;;;;10248696;28;20213;-79
2020/12/21 05:19:21;;;;;;;4.87;4.47;;;7.60;99.90;;;;;;10256144;28;20295;-80
2020/12/21 05:24:24;;;;;;;5.30;4.20;;;7.60;99.90;;;;;;10274766;28;20219;-79
2020/12/21 05:29:28;;;;;;;4.53;4.13;;;7.70;99.90;;;;;;10252953;28;20235;-79
2020/12/21 05:34:30;;;;;;;4.67;4.07;;;7.70;99.90;;;;;;10236972;28;20691;-80
2020/12/21 05:39:33;;;;;;;4.10;3.80;;;7.70;99.90;;;;;;10273008;28;20222;-82
2020/12/21 05:44:35;;;;;;;4.80;4.40;;;7.70;99.90;;;;;;10253598;29;20227;-81
2020/12/21 05:49:51;;;;;;;3.90;3.60;;;7.80;99.90;;;;;;10236517;29;20208;-80
2020/12/21 05:54:54;;;;;;;4.50;4.20;;;7.80;99.90;;;;;;10242296;29;20215;-81
2020/12/21 05:59:58;;;;;;;5.10;4.70;;;7.80;99.90;;;;;;10245812;29;20698;-82
2020/12/21 06:05:01;;;;;;;5.70;5.30;;;7.80;99.90;;;;;;10245869;28;20739;-82
2020/12/21 06:10:06;;;;;;;6.70;6.10;;;7.90;99.90;;;;;;10246924;29;20209;-82
2020/12/21 06:15:12;;;;;;;6.23;5.63;;;8.00;99.90;;;;;;10246524;29;20217;-81
2020/12/21 06:20:14;;;;;;;6.83;6.17;;;8.00;99.90;;;;;;10247703;29;20204;-82
2020/12/21 06:25:23;;;;;;;6.20;5.70;;;8.00;99.90;;;;;;10233075;29;20689;-82
2020/12/21 06:30:30;;;;;;;6.63;6.00;;;8.00;99.90;;;;;;10260396;29;20208;-81
2020/12/21 06:35:42;;;;;;;6.33;5.83;;;8.00;99.90;;;;;;10227134;28;20220;-82
2020/12/21 06:40:44;;;;;;;6.23;5.73;;;7.90;99.90;;;;;;10243444;29;20204;-82
2020/12/21 06:45:46;;;;;;;7.00;6.30;;;7.90;99.90;;;;;;10260153;29;20251;-82
2020/12/21 06:50:48;;;;;;;7.77;6.97;;;7.80;99.90;;;;;;10243269;29;20276;-82
2020/12/21 06:55:50;;;;;;;7.90;6.87;;;7.70;99.90;;;;;;10243377;29;20697;-80
2020/12/21 07:00:53;;;;;;;6.70;6.10;;;7.70;99.90;;;;;;10243974;29;20231;-81
2020/12/21 07:05:57;;;;;;;6.20;5.70;;;7.80;99.90;;;;;;10240174;28;20231;-83
2020/12/21 07:11:00;;;;;;;6.53;6.00;;;7.80;99.90;;;;;;10285094;28;20211;-83
2020/12/21 07:16:02;;;;;;;6.33;5.83;;;7.80;99.90;;;;;;10302377;28;20245;-81
2020/12/21 07:21:07;;;;;;;7.23;6.63;;;7.80;99.90;;;;;;10263636;28;598976;-83
2020/12/21 07:26:11;;;;;;;7.10;6.50;;;7.80;99.90;;;;;;10288095;28;20235;-82
2020/12/21 07:31:15;;;;;;;8.00;7.30;;;7.80;99.90;;;;;;10291245;28;20604;-83
2020/12/21 07:36:17;;;;;;;8.17;7.47;;;7.90;99.90;;;;;;10276762;28;20216;-82
2020/12/21 07:41:24;;;;;;;7.60;7.00;;;8.00;99.90;;;;;;10247537;29;20307;-81
2020/12/21 07:46:30;;;;;;;7.83;7.13;;;8.00;99.90;;;;;;10257541;29;20252;-82
2020/12/21 07:51:33;;;;;;;9.90;7.90;;;8.10;99.90;;;;;;10240156;29;20628;-80
2020/12/21 07:56:36;;;;;;;9.67;7.50;;;8.10;99.90;;;;;;10240407;29;20256;-81
2020/12/21 08:01:39;;;;;;;9.50;8.23;;;8.20;99.90;;;;;;10238336;29;20220;-80
2020/12/21 08:06:41;;;;;;;9.13;8.23;;;8.20;99.90;;;;;;10239520;28;20208;-81
2020/12/21 08:11:44;;;;;;;7.93;7.13;;;8.20;99.90;;;;;;10226533;29;20248;-81
2020/12/21 08:16:46;;;;;;;9.90;8.57;;;8.30;99.90;;;;;;10255136;28;20205;-81
2020/12/21 08:21:48;;;;;;;7.67;6.97;;;8.30;99.90;;;;;;10240213;29;20220;-81
2020/12/21 08:26:51;;;;;;;8.60;7.90;;;8.30;99.90;;;;;;10225627;29;20303;-82
2020/12/21 08:31:52;;;;;;;8.10;7.40;;;8.40;99.90;;;;;;10245601;29;20220;-82
2020/12/21 08:36:56;;;;;;;8.13;7.33;;;8.50;99.90;;;;;;10259574;28;20660;-80
2020/12/21 08:41:59;;;;;;;7.03;6.40;;;8.60;99.90;;;;;;10258688;28;20307;-82
2020/12/21 08:47:01;;;;;;;7.27;6.60;;;8.60;99.90;;;;;;10262317;28;20203;-83
2020/12/21 08:52:03;;;;;;;7.50;6.80;;;8.70;99.90;;;;;;10277147;28;20216;-83
2020/12/21 08:57:06;;;;;;;8.13;6.63;;;8.70;99.90;;;;;;10280416;28;20196;-83
2020/12/21 09:02:07;;;;;;;7.40;6.70;;;8.90;99.90;;;;;;10248539;28;20217;-82
2020/12/21 09:07:09;;;;;;;7.33;6.63;;;8.90;99.90;;;;;;10261680;28;20220;-81
2020/12/21 09:12:12;;;;;;;7.00;6.33;;;9.00;99.90;;;;;;10275538;28;20226;-82
2020/12/21 09:17:13;;;;;;;8.10;7.40;;;9.00;99.90;;;;;;10277393;28;20191;-83
2020/12/21 09:22:15;;;;;;;7.10;6.40;;;9.10;99.90;;;;;;10265495;28;20274;-82
2020/12/21 09:27:18;;;;;;;7.10;6.40;;;9.20;99.90;;;;;;10279366;28;20263;-82
2020/12/21 09:32:19;;;;;;;7.60;6.90;;;9.20;99.90;;;;;;10306975;28;20236;-81
2020/12/21 09:37:21;;;;;;;7.60;6.90;;;9.30;99.90;;;;;;10273926;28;20235;-81
2020/12/21 09:42:24;;;;;;;7.57;6.87;;;9.40;99.90;;;;;;10245331;29;20303;-83
2020/12/21 09:47:26;;;;;;;7.37;6.43;;;9.50;99.90;;;;;;10239934;28;20610;-81
2020/12/21 09:52:31;;;;;;;6.67;6.00;;;9.50;99.90;;;;;;10252694;28;20236;-83
2020/12/21 09:57:35;;;;;;;8.37;6.07;;;9.60;99.90;;;;;;10261488;28;20199;-83
2020/12/21 10:02:37;;;;;;;7.63;5.87;;;9.60;99.90;;;;;;10255189;29;20223;-83
2020/12/21 10:07:39;;;;;;;6.57;5.90;;;9.70;99.90;;;;;;10257674;28;20231;-82
2020/12/21 10:12:41;;;;;;;6.37;5.53;;;9.80;99.90;;;;;;10270151;28;20216;-81
2020/12/21 10:17:46;;;;;;;6.10;5.33;;;9.90;99.90;;;;;;10287189;28;20200;-81
2020/12/21 10:22:47;;;;;;;5.80;5.20;;;10.00;99.90;;;;;;10297301;23;20247;-82
2020/12/21 10:27:51;;;;;;;4.73;4.30;;;10.00;99.90;;;;;;10264662;29;20652;-82
2020/12/21 10:32:53;;;;;;;3.70;3.37;;;10.10;99.90;;;;;;10258988;28;20307;-82
2020/12/21 10:37:56;;;;;;;4.07;3.60;;;10.20;99.90;;;;;;10227399;28;20210;-82
2020/12/21 10:42:58;;;;;;;4.20;3.30;;;10.20;99.90;;;;;;10276096;28;20235;-82
2020/12/21 10:48:00;;;;;;;4.20;3.40;;;10.20;99.90;;;;;;10292241;28;20584;-82
2020/12/21 10:53:01;;;;;;;2.80;2.60;;;10.30;99.90;;;;;;10273564;28;20226;-82
2020/12/21 10:58:04;;;;;;;3.23;2.93;;;10.40;99.90;;;;;;10274905;28;20230;-82
2020/12/21 11:03:06;;;;;;;3.43;3.13;;;10.40;99.90;;;;;;10290180;28;20509;-82
2020/12/21 11:08:08;;;;;;;4.00;3.10;;;10.40;99.90;;;;;;10261947;28;20607;-82
2020/12/21 11:13:10;;;;;;;4.70;3.10;;;10.40;99.90;;;;;;10247559;29;20700;-82
2020/12/21 11:18:12;;;;;;;3.97;2.80;;;10.40;99.90;;;;;;10214566;29;20204;-82
2020/12/21 11:23:14;;;;;;;3.60;3.30;;;10.50;99.90;;;;;;10281550;28;20287;-82
2020/12/21 11:28:16;;;;;;;3.40;3.10;;;10.50;99.90;;;;;;10288093;28;20676;-82
2020/12/21 11:33:18;;;;;;;2.83;2.67;;;10.60;99.90;;;;;;10287766;28;20238;-82
2020/12/21 11:38:20;;;;;;;4.40;2.80;;;10.60;99.90;;;;;;10240557;29;20208;-81
2020/12/21 11:43:22;;;;;;;3.73;3.40;;;10.70;99.90;;;;;;10236895;29;20236;-82
2020/12/21 11:48:24;;;;;;;3.77;3.47;;;10.70;99.90;;;;;;10291399;28;20611;-82
2020/12/21 11:53:26;;;;;;;5.93;4.50;;;10.70;99.90;;;;;;10289426;28;20286;-82
2020/12/21 11:58:28;;;;;;;3.83;3.53;;;10.70;99.90;;;;;;10260657;28;20239;-82
2020/12/21 12:03:30;;;;;;;3.80;3.50;;;10.70;99.90;;;;;;10275772;28;20397;-82
2020/12/21 12:08:32;;;;;;;5.43;3.27;;;10.70;99.90;;;;;;10263525;28;20296;-82
2020/12/21 12:13:38;;;;;;;3.63;3.33;;;10.60;99.90;;;;;;10263732;28;20238;-80
2020/12/21 12:18:41;;;;;;;2.70;2.50;;;10.60;99.90;;;;;;10297326;28;20206;-82
2020/12/21 12:23:42;;;;;;;3.50;3.20;;;10.70;99.90;;;;;;10288073;28;20223;-82
2020/12/21 12:28:45;;;;;;;3.57;3.30;;;10.70;99.90;;;;;;10257361;28;20223;-83
2020/12/21 12:33:47;;;;;;;3.40;3.10;;;10.60;99.90;;;;;;10275432;28;20550;-82
2020/12/21 12:38:49;;;;;;;3.70;3.40;;;10.60;99.90;;;;;;10253017;28;20244;-81
2020/12/21 12:43:52;;;;;;;4.27;3.90;;;10.60;99.90;;;;;;10250525;29;20252;-82
2020/12/21 12:48:53;;;;;;;3.40;3.20;;;10.60;99.90;;;;;;10235667;29;20287;-83
2020/12/21 12:53:55;;;;;;;3.37;3.10;;;10.80;99.90;;;;;;10254782;28;20224;-82
2020/12/21 12:58:58;;;;;;;3.67;3.10;;;10.90;99.90;;;;;;10253060;28;20196;-81
2020/12/21 13:03:59;;;;;;;3.60;3.30;;;11.00;99.90;;;;;;10259411;28;20304;-83
2020/12/21 13:09:01;;;;;;;3.50;3.20;;;11.10;99.90;;;;;;10281811;28;20200;-82
2020/12/21 13:14:04;;;;;;;3.60;3.30;;;11.10;99.90;;;;;;10257183;28;20222;-82
2020/12/21 13:19:05;;;;;;;3.80;3.40;;;11.10;99.90;;;;;;10290665;28;20251;-81
2020/12/21 13:24:07;;;;;;;4.17;3.07;;;10.90;99.90;;;;;;10289180;28;20708;-82
2020/12/21 13:29:09;;;;;;;4.00;3.70;;;10.80;99.90;;;;;;10272079;28;20275;-82
2020/12/21 13:34:11;;;;;;;4.00;3.70;;;10.70;99.90;;;;;;10292050;28;20208;-81
2020/12/21 13:39:13;;;;;;;4.50;4.10;;;10.70;99.90;;;;;;10251323;28;20219;-81
2020/12/21 13:44:15;;;;;;;3.90;3.60;;;10.60;99.90;;;;;;10249027;29;20575;-82
2020/12/21 13:49:17;;;;;;;4.87;4.47;;;10.60;99.90;;;;;;10266716;29;20259;-83
2020/12/21 13:54:19;;;;;;;4.77;4.37;;;10.60;99.90;;;;;;10267569;28;20208;-80
2020/12/21 13:59:21;;;;;;;5.73;5.00;;;10.70;99.90;;;;;;10249923;29;20197;-80
2020/12/21 14:04:23;;;;;;;5.00;4.60;;;10.70;99.90;;;;;;10259627;29;20225;-80
2020/12/21 14:09:24;;;;;;;6.00;5.40;;;10.70;99.90;;;;;;10221848;29;20288;-80
2020/12/21 14:14:27;;;;;;;6.60;5.63;;;10.60;99.90;;;;;;10212653;29;20213;-79
2020/12/21 14:19:28;;;;;;;6.17;5.50;;;10.60;99.90;;;;;;10240223;29;20229;-81
2020/12/21 14:24:30;;;;;;;5.77;5.27;;;10.60;99.90;;;;;;10225716;29;20217;-79
2020/12/21 14:29:33;;;;;;;8.10;5.80;;;10.50;99.90;;;;;;10225293;29;20201;-79
2020/12/21 14:34:35;;;;;;;6.20;5.70;;;10.50;99.90;;;;;;10206073;28;20654;-81
2020/12/21 14:39:36;;;;;;;5.90;5.50;;;10.40;99.90;;;;;;10263601;29;20213;-80
2020/12/21 14:44:39;;;;;;;7.03;6.33;;;10.40;99.90;;;;;;10263831;29;20232;-79
2020/12/21 14:49:40;;;;;;;6.13;5.63;;;10.30;99.90;;;;;;10270269;28;20234;-80
2020/12/21 14:54:42;;;;;;;7.37;6.60;;;10.20;99.90;;;;;;10270293;28;20577;-79
2020/12/21 14:59:44;;;;;;;7.30;6.70;;;10.10;99.90;;;;;;10304540;28;20614;-79
2020/12/21 15:04:46;;;;;;;7.63;7.03;;;10.10;99.90;;;;;;10281708;28;20599;-81
2020/12/21 15:09:48;;;;;;;7.07;6.47;;;10.10;99.90;;;;;;10272138;28;20258;-80
2020/12/21 15:14:50;;;;;;;7.30;6.70;;;10.10;99.90;;;;;;10302514;28;20231;-79
2020/12/21 15:19:52;;;;;;;8.67;6.90;;;10.10;99.90;;;;;;10306474;28;20211;-81
2020/12/21 15:24:54;;;;;;;6.83;6.20;;;10.10;99.90;;;;;;10311079;28;20247;-81
2020/12/21 15:29:57;;;;;;;7.57;6.87;;;10.10;99.90;;;;;;10295160;28;20544;-81
2020/12/21 15:34:59;;;;;;;7.60;6.30;;;10.10;99.90;;;;;;10297776;28;20216;-80
2020/12/21 15:40:00;;;;;;;5.80;5.30;;;10.10;99.90;;;;;;10289591;28;20296;-79
2020/12/21 15:45:03;;;;;;;6.23;5.73;;;10.20;99.90;;;;;;10263425;28;20630;-80
2020/12/21 15:50:06;;;;;;;5.40;4.90;;;10.20;99.90;;;;;;10297851;28;20590;-80
2020/12/21 15:55:07;;;;;;;5.97;5.47;;;10.20;99.90;;;;;;10259289;28;20307;-79
2020/12/21 16:00:10;;;;;;;5.30;4.87;;;10.30;99.90;;;;;;10262395;28;20211;-81
2020/12/21 16:05:12;;;;;;;7.53;6.50;;;10.30;99.90;;;;;;10278339;28;20213;-80
2020/12/21 16:10:14;;;;;;;5.10;4.70;;;10.30;99.90;;;;;;10257660;28;20204;-81
2020/12/21 16:15:17;;;;;;;5.20;4.70;;;10.30;99.90;;;;;;10263291;28;20344;-80
2020/12/21 16:20:18;;;;;;;5.03;4.60;;;10.40;99.90;;;;;;10269251;28;20287;-79
2020/12/21 16:25:20;;;;;;;4.53;4.13;;;10.30;99.90;;;;;;10262652;23;20251;-82
2020/12/21 16:30:24;;;;;;;5.10;4.67;;;10.30;99.90;;;;;;10250073;28;20203;-82
2020/12/21 16:35:25;;;;;;;5.20;4.80;;;10.20;99.90;;;;;;10262872;28;20367;-83
2020/12/21 16:40:27;;;;;;;6.40;5.43;;;10.30;99.90;;;;;;10248650;28;20201;-82
2020/12/21 16:45:30;;;;;;;5.63;5.13;;;10.30;99.90;;;;;;10287750;28;20236;-82
2020/12/21 16:50:31;;;;;;;7.30;6.00;;;10.20;99.90;;;;;;10260951;28;20203;-82
2020/12/21 16:55:33;;;;;;;6.80;6.20;;;10.00;99.90;;;;;;10251786;28;20570;-82
2020/12/21 17:00:35;;;;;;;6.30;5.80;;;9.90;99.90;;;;;;10270013;28;20338;-82
2020/12/21 17:05:37;;;;;;;8.10;6.10;;;9.90;99.90;;;;;;10268335;28;20239;-82
2020/12/21 17:10:40;;;;;;;7.33;6.63;;;9.80;99.90;;;;;;10288641;28;20215;-82
2020/12/21 17:15:42;;;;;;;7.50;6.80;;;9.80;99.90;;;;;;10264901;28;20714;-82
2020/12/21 17:20:44;;;;;;;6.80;6.20;;;9.80;99.90;;;;;;10282762;28;20223;-83
2020/12/21 17:25:46;;;;;;;6.23;5.57;;;9.90;99.90;;;;;;10296775;28;20304;-82
2020/12/21 17:30:48;;;;;;;5.90;5.30;;;10.00;99.90;;;;;;10314682;28;20615;-82
2020/12/21 17:35:50;;;;;;;6.40;5.80;;;10.00;99.90;;;;;;10283886;28;20211;-82
2020/12/21 17:40:51;;;;;;;6.37;5.80;;;10.10;99.90;;;;;;10257393;28;20216;-82
2020/12/21 17:45:54;;;;;;;7.57;6.93;;;10.20;99.90;;;;;;10266166;28;20255;-82
2020/12/21 17:50:56;;;;;;;7.23;6.63;;;10.20;99.90;;;;;;10263565;28;20196;-82
2020/12/21 17:55:58;;;;;;;7.00;6.30;;;10.20;99.90;;;;;;10270462;28;20244;-82
2020/12/21 18:01:00;;;;;;;6.40;5.80;;;10.20;99.90;;;;;;10282371;28;20210;-81
2020/12/21 18:06:04;;;;;;;6.47;5.83;;;10.30;99.90;;;;;;10321983;28;20231;-82
2020/12/21 18:11:06;;;;;;;6.17;5.57;;;10.30;99.90;;;;;;10269179;28;20208;-82
2020/12/21 18:16:09;;;;;;;6.80;5.87;;;10.30;99.90;;;;;;10220008;29;21066;-82
2020/12/21 18:21:10;;;;;;;5.60;5.10;;;10.30;99.90;;;;;;10270559;28;20282;-81
2020/12/21 18:26:16;;;;;;;6.20;4.87;;;10.20;99.90;;;;;;10268210;28;20730;-81
2020/12/21 18:31:18;;;;;;;6.10;5.50;;;10.20;99.90;;;;;;10290649;28;20665;-81
2020/12/21 18:36:20;;;;;;;6.50;5.57;;;10.10;99.90;;;;;;10299734;28;20222;-82
2020/12/21 18:41:21;;;;;;;5.03;4.53;;;10.10;99.90;;;;;;10335805;28;20254;-81
2020/12/21 18:46:24;;;;;;;4.87;4.47;;;10.00;99.90;;;;;;10320983;28;20751;-82
2020/12/21 18:51:26;;;;;;;4.30;4.00;;;9.90;99.90;;;;;;10311009;28;20207;-81
2020/12/21 18:56:27;;;;;;;4.60;4.20;;;9.80;99.90;;;;;;10319496;28;20322;-82
2020/12/21 19:01:33;;;;;;;6.20;5.60;;;9.80;99.90;;;;;;10318031;28;20230;-83
2020/12/21 19:06:35;;;;;;;5.13;4.47;;;9.90;99.90;;;;;;10243934;29;20310;-81
2020/12/21 19:11:37;;;;;;;5.30;4.63;;;9.90;99.90;;;;;;10223528;29;20585;-82
2020/12/21 19:16:39;;;;;;;4.13;3.83;;;9.90;99.90;;;;;;10280068;28;20330;-82
2020/12/21 19:21:41;;;;;;;5.10;4.70;;;9.90;99.90;;;;;;10258641;28;20213;-82
2020/12/21 19:26:43;;;;;;;4.83;4.43;;;9.90;99.90;;;;;;10254094;28;20232;-82
2020/12/21 19:31:45;;;;;;;5.30;4.80;;;9.80;99.90;;;;;;10271732;28;20218;-82
2020/12/21 19:36:47;;;;;;;5.30;4.80;;;9.70;99.90;;;;;;10275683;28;20294;-82
2020/12/21 19:41:50;;;;;;;5.50;4.97;;;9.70;99.90;;;;;;10289444;28;20208;-82
2020/12/21 19:46:53;;;;;;;4.87;4.47;;;9.70;99.90;;;;;;10257800;28;20258;-83
2020/12/21 19:51:54;;;;;;;6.43;5.73;;;9.70;99.90;;;;;;10295145;28;20207;-82
2020/12/21 19:56:57;;;;;;;6.30;5.70;;;9.70;99.90;;;;;;10266271;28;20234;-82
2020/12/21 20:02:03;;;;;;;6.17;5.30;;;9.70;99.90;;;;;;10275244;28;20650;-82
2020/12/21 20:07:05;;;;;;;6.10;5.50;;;9.70;99.90;;;;;;10317630;28;20242;-83
2020/12/21 20:12:06;;;;;;;6.27;5.77;;;9.70;99.90;;;;;;10267150;28;20295;-83
2020/12/21 20:17:11;;;;;;;6.97;6.27;;;9.70;99.90;;;;;;10265758;28;20188;-82
2020/12/21 20:22:16;;;;;;;8.90;7.13;;;9.60;99.90;;;;;;10279729;28;20241;-82
2020/12/21 20:27:17;;;;;;;8.97;8.17;;;9.50;99.90;;;;;;10235615;29;20243;-83
2020/12/21 20:32:20;;;;;;;9.60;8.70;;;9.40;99.90;;;;;;10236392;29;20216;-82
2020/12/21 20:37:22;;;;;;;8.87;8.07;;;9.30;99.90;;;;;;10246964;28;20271;-81
2020/12/21 20:42:24;;;;;;;7.67;6.93;;;9.20;99.90;;;;;;10316147;28;20650;-81
2020/12/21 20:47:28;;;;;;;10.00;9.00;;;9.20;99.90;;;;;;10272802;28;20771;-82
2020/12/21 20:52:30;;;;;;;9.10;8.20;;;9.10;99.90;;;;;;10267203;28;20239;-83
2020/12/21 20:57:31;;;;;;;9.20;8.40;;;9.10;99.90;;;;;;10271382;28;20200;-81
2020/12/21 21:02:35;;;;;;;8.67;7.87;;;9.10;99.90;;;;;;10255007;28;20231;-82
2020/12/21 21:07:40;;;;;;;8.30;7.60;;;9.10;99.90;;;;;;10274982;28;20203;-82
2020/12/21 21:12:41;;;;;;;7.60;7.00;;;9.10;99.90;;;;;;10294922;28;20216;-82
2020/12/21 21:17:44;;;;;;;7.73;6.97;;;9.10;99.90;;;;;;10258069;28;20211;-82
2020/12/21 21:22:46;;;;;;;7.70;7.00;;;9.20;99.90;;;;;;10252657;28;20243;-82
2020/12/21 21:27:47;;;;;;;8.07;7.33;;;9.20;99.90;;;;;;10274767;28;20210;-82
2020/12/21 21:32:50;;;;;;;8.40;7.60;;;9.20;99.90;;;;;;10223394;29;20300;-83
2020/12/21 21:37:52;;;;;;;7.60;6.90;;;9.20;99.90;;;;;;10239905;28;20215;-83
2020/12/21 21:42:54;;;;;;;7.37;6.67;;;9.30;99.90;;;;;;10220857;29;20224;-84
2020/12/21 21:47:56;;;;;;;7.80;7.10;;;9.40;99.90;;;;;;10221620;29;20296;-84
2020/12/21 21:52:58;;;;;;;6.20;5.60;;;9.40;99.90;;;;;;10252001;28;20238;-83
2020/12/21 21:58:00;;;;;;;6.73;6.03;;;9.50;99.90;;;;;;10282008;28;20207;-84
2020/12/21 22:03:02;;;;;;;6.83;6.20;;;9.60;99.90;;;;;;10233986;29;20212;-83
2020/12/21 22:08:04;;;;;;;7.53;6.80;;;9.60;99.90;;;;;;10257589;28;20207;-85
2020/12/21 22:13:06;;;;;;;6.77;5.83;;;9.60;99.90;;;;;;10295504;28;20223;-83
2020/12/21 22:18:08;;;;;;;6.77;6.17;;;9.60;99.90;;;;;;10293687;28;20212;-83
2020/12/21 22:23:10;;;;;;;6.23;5.73;;;9.60;99.90;;;;;;10270548;23;20228;-79
2020/12/21 22:28:11;;;;;;;6.23;5.63;;;9.60;99.90;;;;;;10252418;29;20283;-82
2020/12/21 22:33:14;;;;;;;5.93;5.40;;;9.60;99.90;;;;;;10215764;29;20226;-82
2020/12/21 22:38:16;;;;;;;6.47;5.87;;;9.60;99.90;;;;;;10202066;29;20209;-82
2020/12/21 22:43:17;;;;;;;5.90;5.40;;;9.60;99.90;;;;;;10215985;29;20257;-82
2020/12/21 22:48:20;;;;;;;5.13;4.63;;;9.70;99.90;;;;;;10205229;29;20676;-80
2020/12/21 22:53:22;;;;;;;5.47;4.90;;;9.70;99.90;;;;;;10182884;29;20237;-80
2020/12/21 22:58:23;;;;;;;5.43;5.00;;;9.70;99.90;;;;;;10171864;29;20293;-81
2020/12/21 23:03:26;;;;;;;5.33;4.83;;;9.80;99.90;;;;;;10177978;29;20307;-82
2020/12/21 23:08:27;;;;;;;4.50;4.20;;;9.90;99.90;;;;;;10248621;29;20232;-81
2020/12/21 23:13:29;;;;;;;4.87;4.13;;;9.90;99.90;;;;;;10217566;29;20227;-81
2020/12/21 23:18:31;;;;;;;4.37;4.07;;;10.00;99.90;;;;;;10192139;29;20208;-80
2020/12/21 23:23:33;;;;;;;3.80;3.53;;;10.00;99.90;;;;;;10155485;29;20274;-82
2020/12/21 23:28:35;;;;;;;3.90;3.53;;;10.10;99.90;;;;;;10193596;29;20666;-82
2020/12/21 23:33:37;;;;;;;3.37;3.10;;;10.20;99.90;;;;;;10200830;29;20249;-81
2020/12/21 23:38:39;;;;;;;2.70;2.60;;;10.20;99.90;;;;;;10204867;29;20194;-81
2020/12/21 23:43:41;;;;;;;2.50;2.40;;;10.40;99.90;;;;;;10184085;29;20592;-81
2020/12/21 23:48:44;;;;;;;2.80;2.60;;;10.40;99.90;;;;;;10205573;29;20468;-82
2020/12/21 23:53:46;;;;;;;2.80;2.60;;;10.50;99.90;;;;;;10187186;29;20225;-81
2020/12/21 23:58:48;;;;;;;2.50;2.30;;;10.50;99.90;;;;;;10180288;29;20689;-82
